sensor_id;sensor_type;location;lat;lon;timestamp;P1;durP1;ratioP1;P2;durP2;ratioP2
56455;SDS011;42354;53.218;6.564;2022-08-21T00:01:13;8.93;;;3.03;;
56455;SDS011;42354;53.218;6.564;2022-08-21T00:03:43;8.77;;;2.78;;
56455;SDS011;42354;53.218;6.564;2022-08-21T00:06:09;8.23;;;2.78;;
56455;SDS011;42354;53.218;6.564;2022-08-21T00:08:34;13.35;;;3.78;;
56455;SDS011;42354;53.218;6.564;2022-08-21T00:11:00;15.63;;;3.83;;
56455;SDS011;42354;53.218;6.564;2022-08-21T00:13:26;11.65;;;3.50;;
56455;SDS011;42354;53.218;6.564;2022-08-21T00:15:51;10.30;;;3.28;;
56455;SDS011;42354;53.218;6.564;2022-08-21T00:18:17;12.00;;;3.88;;
56455;SDS011;42354;53.218;6.564;2022-08-21T00:20:43;9.35;;;3.80;;
56455;SDS011;42354;53.218;6.564;2022-08-21T00:23:09;11.45;;;4.93;;
56455;SDS011;42354;53.218;6.564;2022-08-21T00:25:37;8.93;;;3.58;;
56455;SDS011;42354;53.218;6.564;2022-08-21T00:28:03;13.35;;;3.95;;
56455;SDS011;42354;53.218;6.564;2022-08-21T00:30:29;9.50;;;4.25;;
56455;SDS011;42354;53.218;6.564;2022-08-21T00:32:55;12.85;;;3.85;;
56455;SDS011;42354;53.218;6.564;2022-08-21T00:35:23;13.70;;;4.22;;
56455;SDS011;42354;53.218;6.564;2022-08-21T00:37:56;7.10;;;4.10;;
56455;SDS011;42354;53.218;6.564;2022-08-21T00:40:24;10.68;;;4.45;;
56455;SDS011;42354;53.218;6.564;2022-08-21T00:42:54;13.93;;;4.70;;
56455;SDS011;42354;53.218;6.564;2022-08-21T00:45:21;14.10;;;4.40;;
56455;SDS011;42354;53.218;6.564;2022-08-21T00:47:47;14.93;;;4.88;;
56455;SDS011;42354;53.218;6.564;2022-08-21T00:50:13;7.97;;;4.60;;
56455;SDS011;42354;53.218;6.564;2022-08-21T00:52:38;14.45;;;5.40;;
56455;SDS011;42354;53.218;6.564;2022-08-21T00:55:06;14.00;;;5.78;;
56455;SDS011;42354;53.218;6.564;2022-08-21T00:57:39;18.02;;;4.97;;
56455;SDS011;42354;53.218;6.564;2022-08-21T01:00:10;14.57;;;5.47;;
56455;SDS011;42354;53.218;6.564;2022-08-21T01:02:39;14.05;;;5.32;;
56455;SDS011;42354;53.218;6.564;2022-08-21T01:05:08;24.23;;;9.15;;
56455;SDS011;42354;53.218;6.564;2022-08-21T01:07:34;9.65;;;5.22;;
56455;SDS011;42354;53.218;6.564;2022-08-21T01:10:00;13.10;;;6.20;;
56455;SDS011;42354;53.218;6.564;2022-08-21T01:12:25;26.13;;;10.13;;
56455;SDS011;42354;53.218;6.564;2022-08-21T01:14:51;15.90;;;6.15;;
56455;SDS011;42354;53.218;6.564;2022-08-21T01:17:17;14.00;;;5.65;;
56455;SDS011;42354;53.218;6.564;2022-08-21T01:19:44;18.40;;;7.03;;
56455;SDS011;42354;53.218;6.564;2022-08-21T01:22:11;25.77;;;10.05;;
56455;SDS011;42354;53.218;6.564;2022-08-21T01:24:37;54.22;;;17.02;;
56455;SDS011;42354;53.218;6.564;2022-08-21T01:27:03;19.08;;;9.27;;
56455;SDS011;42354;53.218;6.564;2022-08-21T01:29:34;30.85;;;11.05;;
56455;SDS011;42354;53.218;6.564;2022-08-21T01:32:05;16.13;;;6.82;;
56455;SDS011;42354;53.218;6.564;2022-08-21T01:34:37;11.93;;;5.55;;
56455;SDS011;42354;53.218;6.564;2022-08-21T01:37:05;25.23;;;8.13;;
56455;SDS011;42354;53.218;6.564;2022-08-21T01:39:31;41.22;;;11.43;;
56455;SDS011;42354;53.218;6.564;2022-08-21T01:41:57;17.38;;;6.20;;
56455;SDS011;42354;53.218;6.564;2022-08-21T01:44:22;13.48;;;5.15;;
56455;SDS011;42354;53.218;6.564;2022-08-21T01:46:49;19.80;;;7.13;;
56455;SDS011;42354;53.218;6.564;2022-08-21T01:49:15;11.48;;;4.82;;
56455;SDS011;42354;53.218;6.564;2022-08-21T01:51:40;9.27;;;5.03;;
56455;SDS011;42354;53.218;6.564;2022-08-21T01:54:06;14.48;;;5.38;;
56455;SDS011;42354;53.218;6.564;2022-08-21T01:56:43;17.33;;;7.38;;
56455;SDS011;42354;53.218;6.564;2022-08-21T01:59:11;32.60;;;9.35;;
56455;SDS011;42354;53.218;6.564;2022-08-21T02:01:36;24.50;;;7.93;;
56455;SDS011;42354;53.218;6.564;2022-08-21T02:04:07;16.52;;;6.25;;
56455;SDS011;42354;53.218;6.564;2022-08-21T02:06:33;18.90;;;6.50;;
56455;SDS011;42354;53.218;6.564;2022-08-21T02:09:00;11.32;;;5.97;;
56455;SDS011;42354;53.218;6.564;2022-08-21T02:11:26;17.42;;;6.78;;
56455;SDS011;42354;53.218;6.564;2022-08-21T02:13:51;12.13;;;5.15;;
56455;SDS011;42354;53.218;6.564;2022-08-21T02:16:17;21.85;;;7.78;;
56455;SDS011;42354;53.218;6.564;2022-08-21T02:18:42;21.60;;;7.93;;
56455;SDS011;42354;53.218;6.564;2022-08-21T02:21:08;17.77;;;6.20;;
56455;SDS011;42354;53.218;6.564;2022-08-21T02:23:33;14.80;;;6.78;;
56455;SDS011;42354;53.218;6.564;2022-08-21T02:25:59;18.40;;;5.93;;
56455;SDS011;42354;53.218;6.564;2022-08-21T02:28:27;12.55;;;5.20;;
56455;SDS011;42354;53.218;6.564;2022-08-21T02:30:53;13.20;;;6.05;;
56455;SDS011;42354;53.218;6.564;2022-08-21T02:33:19;11.00;;;5.32;;
56455;SDS011;42354;53.218;6.564;2022-08-21T02:35:46;16.55;;;5.95;;
56455;SDS011;42354;53.218;6.564;2022-08-21T02:38:16;12.70;;;5.00;;
56455;SDS011;42354;53.218;6.564;2022-08-21T02:40:46;16.92;;;6.38;;
56455;SDS011;42354;53.218;6.564;2022-08-21T02:43:13;17.38;;;5.90;;
56455;SDS011;42354;53.218;6.564;2022-08-21T02:45:40;13.35;;;6.65;;
56455;SDS011;42354;53.218;6.564;2022-08-21T02:48:07;21.50;;;8.23;;
56455;SDS011;42354;53.218;6.564;2022-08-21T02:50:44;14.70;;;5.80;;
56455;SDS011;42354;53.218;6.564;2022-08-21T02:53:17;13.48;;;5.55;;
56455;SDS011;42354;53.218;6.564;2022-08-21T02:55:44;11.00;;;5.38;;
56455;SDS011;42354;53.218;6.564;2022-08-21T02:58:12;10.90;;;5.18;;
56455;SDS011;42354;53.218;6.564;2022-08-21T03:00:38;16.48;;;6.07;;
56455;SDS011;42354;53.218;6.564;2022-08-21T03:03:04;13.57;;;5.97;;
56455;SDS011;42354;53.218;6.564;2022-08-21T03:05:31;18.30;;;7.50;;
56455;SDS011;42354;53.218;6.564;2022-08-21T03:07:58;13.15;;;5.40;;
56455;SDS011;42354;53.218;6.564;2022-08-21T03:10:25;18.55;;;6.88;;
56455;SDS011;42354;53.218;6.564;2022-08-21T03:12:51;12.63;;;4.90;;
56455;SDS011;42354;53.218;6.564;2022-08-21T03:15:18;12.63;;;5.60;;
56455;SDS011;42354;53.218;6.564;2022-08-21T03:17:46;10.23;;;4.75;;
56455;SDS011;42354;53.218;6.564;2022-08-21T03:20:14;13.55;;;5.05;;
56455;SDS011;42354;53.218;6.564;2022-08-21T03:22:41;11.02;;;5.45;;
56455;SDS011;42354;53.218;6.564;2022-08-21T03:25:06;8.70;;;5.10;;
56455;SDS011;42354;53.218;6.564;2022-08-21T03:27:33;10.82;;;4.65;;
56455;SDS011;42354;53.218;6.564;2022-08-21T03:29:59;14.73;;;4.75;;
56455;SDS011;42354;53.218;6.564;2022-08-21T03:32:25;12.18;;;4.65;;
56455;SDS011;42354;53.218;6.564;2022-08-21T03:34:51;11.77;;;4.18;;
56455;SDS011;42354;53.218;6.564;2022-08-21T03:37:17;12.07;;;4.00;;
56455;SDS011;42354;53.218;6.564;2022-08-21T03:39:42;11.98;;;4.47;;
56455;SDS011;42354;53.218;6.564;2022-08-21T03:42:09;12.43;;;4.10;;
56455;SDS011;42354;53.218;6.564;2022-08-21T03:44:35;7.03;;;4.10;;
56455;SDS011;42354;53.218;6.564;2022-08-21T03:47:01;11.30;;;4.55;;
56455;SDS011;42354;53.218;6.564;2022-08-21T03:49:26;11.82;;;4.00;;
56455;SDS011;42354;53.218;6.564;2022-08-21T03:51:52;12.88;;;4.22;;
56455;SDS011;42354;53.218;6.564;2022-08-21T03:54:19;13.45;;;4.45;;
56455;SDS011;42354;53.218;6.564;2022-08-21T03:56:44;9.88;;;4.18;;
56455;SDS011;42354;53.218;6.564;2022-08-21T03:59:10;15.23;;;4.78;;
56455;SDS011;42354;53.218;6.564;2022-08-21T04:01:37;9.20;;;3.85;;
56455;SDS011;42354;53.218;6.564;2022-08-21T04:04:04;8.77;;;4.70;;
56455;SDS011;42354;53.218;6.564;2022-08-21T04:06:30;12.85;;;4.70;;
56455;SDS011;42354;53.218;6.564;2022-08-21T04:08:55;14.13;;;5.10;;
56455;SDS011;42354;53.218;6.564;2022-08-21T04:11:21;10.10;;;5.30;;
56455;SDS011;42354;53.218;6.564;2022-08-21T04:13:46;11.68;;;5.20;;
56455;SDS011;42354;53.218;6.564;2022-08-21T04:16:12;14.35;;;5.20;;
56455;SDS011;42354;53.218;6.564;2022-08-21T04:18:38;14.00;;;5.55;;
56455;SDS011;42354;53.218;6.564;2022-08-21T04:21:03;14.23;;;5.20;;
56455;SDS011;42354;53.218;6.564;2022-08-21T04:23:30;15.30;;;5.85;;
56455;SDS011;42354;53.218;6.564;2022-08-21T04:25:57;12.68;;;5.88;;
56455;SDS011;42354;53.218;6.564;2022-08-21T04:28:23;10.55;;;5.45;;
56455;SDS011;42354;53.218;6.564;2022-08-21T04:30:52;16.83;;;5.68;;
56455;SDS011;42354;53.218;6.564;2022-08-21T04:33:19;11.95;;;6.03;;
56455;SDS011;42354;53.218;6.564;2022-08-21T04:35:46;9.40;;;5.03;;
56455;SDS011;42354;53.218;6.564;2022-08-21T04:38:12;9.18;;;4.93;;
56455;SDS011;42354;53.218;6.564;2022-08-21T04:40:37;10.75;;;5.00;;
56455;SDS011;42354;53.218;6.564;2022-08-21T04:43:04;13.82;;;5.15;;
56455;SDS011;42354;53.218;6.564;2022-08-21T04:48:00;8.75;;;4.38;;
56455;SDS011;42354;53.218;6.564;2022-08-21T04:50:28;12.55;;;5.15;;
56455;SDS011;42354;53.218;6.564;2022-08-21T04:52:57;11.38;;;4.80;;
56455;SDS011;42354;53.218;6.564;2022-08-21T04:55:23;12.63;;;5.05;;
56455;SDS011;42354;53.218;6.564;2022-08-21T04:57:51;12.85;;;4.82;;
56455;SDS011;42354;53.218;6.564;2022-08-21T05:00:18;11.35;;;5.13;;
56455;SDS011;42354;53.218;6.564;2022-08-21T05:02:44;9.93;;;5.32;;
56455;SDS011;42354;53.218;6.564;2022-08-21T05:05:12;11.50;;;5.18;;
56455;SDS011;42354;53.218;6.564;2022-08-21T05:07:38;12.43;;;5.45;;
56455;SDS011;42354;53.218;6.564;2022-08-21T05:10:04;10.20;;;5.57;;
56455;SDS011;42354;53.218;6.564;2022-08-21T05:12:33;11.15;;;5.28;;
56455;SDS011;42354;53.218;6.564;2022-08-21T05:14:59;12.55;;;5.10;;
56455;SDS011;42354;53.218;6.564;2022-08-21T05:17:25;14.07;;;5.95;;
56455;SDS011;42354;53.218;6.564;2022-08-21T05:19:50;11.38;;;4.85;;
56455;SDS011;42354;53.218;6.564;2022-08-21T05:22:22;14.35;;;5.18;;
56455;SDS011;42354;53.218;6.564;2022-08-21T05:24:51;12.18;;;4.97;;
56455;SDS011;42354;53.218;6.564;2022-08-21T05:27:17;14.20;;;5.22;;
56455;SDS011;42354;53.218;6.564;2022-08-21T05:29:42;8.60;;;4.90;;
56455;SDS011;42354;53.218;6.564;2022-08-21T05:32:14;17.65;;;5.43;;
56455;SDS011;42354;53.218;6.564;2022-08-21T05:34:41;14.75;;;5.20;;
56455;SDS011;42354;53.218;6.564;2022-08-21T05:37:06;11.10;;;5.10;;
56455;SDS011;42354;53.218;6.564;2022-08-21T05:39:32;13.70;;;5.20;;
56455;SDS011;42354;53.218;6.564;2022-08-21T05:41:57;14.38;;;4.95;;
56455;SDS011;42354;53.218;6.564;2022-08-21T05:44:24;12.75;;;5.40;;
56455;SDS011;42354;53.218;6.564;2022-08-21T05:46:49;11.73;;;4.95;;
56455;SDS011;42354;53.218;6.564;2022-08-21T05:49:15;8.82;;;4.93;;
56455;SDS011;42354;53.218;6.564;2022-08-21T05:51:40;13.55;;;5.40;;
56455;SDS011;42354;53.218;6.564;2022-08-21T05:54:06;12.48;;;5.18;;
56455;SDS011;42354;53.218;6.564;2022-08-21T05:56:32;14.55;;;4.88;;
56455;SDS011;42354;53.218;6.564;2022-08-21T05:58:58;12.10;;;5.28;;
56455;SDS011;42354;53.218;6.564;2022-08-21T06:01:23;15.95;;;5.20;;
56455;SDS011;42354;53.218;6.564;2022-08-21T06:03:49;12.90;;;4.63;;
56455;SDS011;42354;53.218;6.564;2022-08-21T06:06:14;11.95;;;4.40;;
56455;SDS011;42354;53.218;6.564;2022-08-21T06:08:40;14.32;;;4.53;;
56455;SDS011;42354;53.218;6.564;2022-08-21T06:11:06;12.82;;;5.15;;
56455;SDS011;42354;53.218;6.564;2022-08-21T06:13:32;14.57;;;4.90;;
56455;SDS011;42354;53.218;6.564;2022-08-21T06:16:07;13.38;;;5.30;;
56455;SDS011;42354;53.218;6.564;2022-08-21T06:18:35;11.60;;;5.07;;
56455;SDS011;42354;53.218;6.564;2022-08-21T06:21:02;11.57;;;4.72;;
56455;SDS011;42354;53.218;6.564;2022-08-21T06:23:28;11.00;;;4.43;;
56455;SDS011;42354;53.218;6.564;2022-08-21T06:25:53;17.95;;;4.72;;
56455;SDS011;42354;53.218;6.564;2022-08-21T06:28:19;12.60;;;4.22;;
56455;SDS011;42354;53.218;6.564;2022-08-21T06:30:44;10.43;;;5.38;;
56455;SDS011;42354;53.218;6.564;2022-08-21T06:33:09;11.15;;;4.05;;
56455;SDS011;42354;53.218;6.564;2022-08-21T06:35:36;10.85;;;4.30;;
56455;SDS011;42354;53.218;6.564;2022-08-21T06:38:02;11.35;;;3.63;;
56455;SDS011;42354;53.218;6.564;2022-08-21T06:40:28;12.10;;;4.15;;
56455;SDS011;42354;53.218;6.564;2022-08-21T06:42:54;13.60;;;4.18;;
56455;SDS011;42354;53.218;6.564;2022-08-21T06:45:29;9.43;;;3.75;;
56455;SDS011;42354;53.218;6.564;2022-08-21T06:47:55;12.30;;;4.43;;
56455;SDS011;42354;53.218;6.564;2022-08-21T06:50:20;16.42;;;4.00;;
56455;SDS011;42354;53.218;6.564;2022-08-21T06:52:46;12.13;;;3.80;;
56455;SDS011;42354;53.218;6.564;2022-08-21T06:55:11;11.32;;;3.22;;
56455;SDS011;42354;53.218;6.564;2022-08-21T06:57:37;8.68;;;3.15;;
56455;SDS011;42354;53.218;6.564;2022-08-21T07:00:04;7.88;;;2.92;;
56455;SDS011;42354;53.218;6.564;2022-08-21T07:02:30;8.52;;;3.05;;
56455;SDS011;42354;53.218;6.564;2022-08-21T07:04:55;6.82;;;2.60;;
56455;SDS011;42354;53.218;6.564;2022-08-21T07:07:20;9.15;;;3.13;;
56455;SDS011;42354;53.218;6.564;2022-08-21T07:09:46;12.63;;;2.50;;
56455;SDS011;42354;53.218;6.564;2022-08-21T07:12:11;12.80;;;3.25;;
56455;SDS011;42354;53.218;6.564;2022-08-21T07:14:37;11.05;;;2.35;;
56455;SDS011;42354;53.218;6.564;2022-08-21T07:17:06;6.82;;;2.33;;
56455;SDS011;42354;53.218;6.564;2022-08-21T07:19:31;9.18;;;2.33;;
56455;SDS011;42354;53.218;6.564;2022-08-21T07:21:57;10.18;;;2.22;;
56455;SDS011;42354;53.218;6.564;2022-08-21T07:24:25;8.77;;;2.30;;
56455;SDS011;42354;53.218;6.564;2022-08-21T07:26:50;13.85;;;2.63;;
56455;SDS011;42354;53.218;6.564;2022-08-21T07:29:15;6.68;;;2.30;;
56455;SDS011;42354;53.218;6.564;2022-08-21T07:31:41;11.02;;;2.75;;
56455;SDS011;42354;53.218;6.564;2022-08-21T07:34:06;8.80;;;2.20;;
56455;SDS011;42354;53.218;6.564;2022-08-21T07:36:33;7.43;;;2.40;;
56455;SDS011;42354;53.218;6.564;2022-08-21T07:38:58;12.50;;;2.75;;
56455;SDS011;42354;53.218;6.564;2022-08-21T07:41:24;10.10;;;2.25;;
56455;SDS011;42354;53.218;6.564;2022-08-21T07:43:53;11.65;;;2.97;;
56455;SDS011;42354;53.218;6.564;2022-08-21T07:46:19;7.25;;;1.77;;
56455;SDS011;42354;53.218;6.564;2022-08-21T07:48:44;8.43;;;1.85;;
56455;SDS011;42354;53.218;6.564;2022-08-21T07:51:12;8.68;;;1.95;;
56455;SDS011;42354;53.218;6.564;2022-08-21T07:53:40;8.48;;;1.65;;
56455;SDS011;42354;53.218;6.564;2022-08-21T07:56:06;9.23;;;1.50;;
56455;SDS011;42354;53.218;6.564;2022-08-21T07:58:33;6.43;;;1.75;;
56455;SDS011;42354;53.218;6.564;2022-08-21T08:00:58;6.57;;;1.45;;
56455;SDS011;42354;53.218;6.564;2022-08-21T08:03:25;6.97;;;1.88;;
56455;SDS011;42354;53.218;6.564;2022-08-21T08:05:50;9.80;;;2.55;;
56455;SDS011;42354;53.218;6.564;2022-08-21T08:08:16;5.70;;;1.45;;
56455;SDS011;42354;53.218;6.564;2022-08-21T08:10:42;8.45;;;1.50;;
56455;SDS011;42354;53.218;6.564;2022-08-21T08:13:08;7.43;;;1.40;;
56455;SDS011;42354;53.218;6.564;2022-08-21T08:15:33;6.80;;;1.42;;
56455;SDS011;42354;53.218;6.564;2022-08-21T08:17:59;13.70;;;1.73;;
56455;SDS011;42354;53.218;6.564;2022-08-21T08:20:24;8.70;;;1.80;;
56455;SDS011;42354;53.218;6.564;2022-08-21T08:22:51;9.30;;;1.95;;
56455;SDS011;42354;53.218;6.564;2022-08-21T08:25:18;8.25;;;2.17;;
56455;SDS011;42354;53.218;6.564;2022-08-21T08:27:45;13.02;;;2.40;;
56455;SDS011;42354;53.218;6.564;2022-08-21T08:30:12;12.95;;;1.92;;
56455;SDS011;42354;53.218;6.564;2022-08-21T08:32:39;12.80;;;1.90;;
56455;SDS011;42354;53.218;6.564;2022-08-21T08:35:05;11.40;;;2.17;;
56455;SDS011;42354;53.218;6.564;2022-08-21T08:37:32;9.93;;;2.25;;
56455;SDS011;42354;53.218;6.564;2022-08-21T08:39:59;5.93;;;1.73;;
56455;SDS011;42354;53.218;6.564;2022-08-21T08:42:29;9.25;;;2.00;;
56455;SDS011;42354;53.218;6.564;2022-08-21T08:45:08;10.37;;;2.27;;
56455;SDS011;42354;53.218;6.564;2022-08-21T08:47:42;11.77;;;2.33;;
56455;SDS011;42354;53.218;6.564;2022-08-21T08:50:19;8.55;;;2.50;;
56455;SDS011;42354;53.218;6.564;2022-08-21T08:52:51;16.80;;;2.65;;
56455;SDS011;42354;53.218;6.564;2022-08-21T08:55:23;9.65;;;2.13;;
56455;SDS011;42354;53.218;6.564;2022-08-21T08:57:59;7.88;;;2.03;;
56455;SDS011;42354;53.218;6.564;2022-08-21T09:00:27;8.32;;;2.25;;
56455;SDS011;42354;53.218;6.564;2022-08-21T09:02:59;11.23;;;2.67;;
56455;SDS011;42354;53.218;6.564;2022-08-21T09:05:28;12.57;;;2.22;;
56455;SDS011;42354;53.218;6.564;2022-08-21T09:11:04;9.85;;;2.08;;
56455;SDS011;42354;53.218;6.564;2022-08-21T09:13:42;10.43;;;3.65;;
56455;SDS011;42354;53.218;6.564;2022-08-21T09:23:07;9.02;;;1.85;;
56455;SDS011;42354;53.218;6.564;2022-08-21T09:26:19;9.95;;;2.47;;
56455;SDS011;42354;53.218;6.564;2022-08-21T09:31:36;9.45;;;2.70;;
56455;SDS011;42354;53.218;6.564;2022-08-21T09:34:08;12.00;;;2.13;;
56455;SDS011;42354;53.218;6.564;2022-08-21T09:39:12;9.50;;;2.00;;
56455;SDS011;42354;53.218;6.564;2022-08-21T09:41:39;9.90;;;2.72;;
56455;SDS011;42354;53.218;6.564;2022-08-21T09:44:07;9.73;;;2.20;;
56455;SDS011;42354;53.218;6.564;2022-08-21T09:46:38;8.93;;;2.97;;
56455;SDS011;42354;53.218;6.564;2022-08-21T09:49:25;6.20;;;2.13;;
56455;SDS011;42354;53.218;6.564;2022-08-21T09:51:54;10.95;;;2.60;;
56455;SDS011;42354;53.218;6.564;2022-08-21T09:54:26;13.70;;;2.42;;
56455;SDS011;42354;53.218;6.564;2022-08-21T09:59:52;15.73;;;3.08;;
56455;SDS011;42354;53.218;6.564;2022-08-21T10:02:23;9.90;;;2.70;;
56455;SDS011;42354;53.218;6.564;2022-08-21T10:04:57;10.90;;;2.10;;
56455;SDS011;42354;53.218;6.564;2022-08-21T10:07:26;10.65;;;2.50;;
56455;SDS011;42354;53.218;6.564;2022-08-21T10:10:06;10.10;;;2.20;;
56455;SDS011;42354;53.218;6.564;2022-08-21T10:15:15;8.10;;;2.88;;
56455;SDS011;42354;53.218;6.564;2022-08-21T10:29:12;10.07;;;2.25;;
56455;SDS011;42354;53.218;6.564;2022-08-21T10:31:54;7.63;;;1.70;;
56455;SDS011;42354;53.218;6.564;2022-08-21T10:37:25;6.60;;;1.73;;
56455;SDS011;42354;53.218;6.564;2022-08-21T10:45:33;6.03;;;1.80;;
56455;SDS011;42354;53.218;6.564;2022-08-21T10:48:03;7.18;;;2.55;;
56455;SDS011;42354;53.218;6.564;2022-08-21T10:58:51;10.43;;;2.45;;
56455;SDS011;42354;53.218;6.564;2022-08-21T11:01:31;10.75;;;2.40;;
56455;SDS011;42354;53.218;6.564;2022-08-21T11:07:18;9.23;;;2.20;;
56455;SDS011;42354;53.218;6.564;2022-08-21T11:10:09;9.98;;;2.30;;
56455;SDS011;42354;53.218;6.564;2022-08-21T11:12:41;9.60;;;2.85;;
56455;SDS011;42354;53.218;6.564;2022-08-21T11:17:43;12.48;;;2.85;;
56455;SDS011;42354;53.218;6.564;2022-08-21T11:20:17;11.30;;;2.63;;
56455;SDS011;42354;53.218;6.564;2022-08-21T11:23:04;7.43;;;2.15;;
56455;SDS011;42354;53.218;6.564;2022-08-21T11:25:37;8.63;;;2.38;;
56455;SDS011;42354;53.218;6.564;2022-08-21T11:28:09;7.90;;;2.58;;
56455;SDS011;42354;53.218;6.564;2022-08-21T11:33:31;10.05;;;2.42;;
56455;SDS011;42354;53.218;6.564;2022-08-21T11:36:06;6.88;;;1.60;;
56455;SDS011;42354;53.218;6.564;2022-08-21T11:38:54;14.55;;;2.10;;
56455;SDS011;42354;53.218;6.564;2022-08-21T11:41:31;9.02;;;1.90;;
56455;SDS011;42354;53.218;6.564;2022-08-21T11:47:01;7.78;;;1.80;;
56455;SDS011;42354;53.218;6.564;2022-08-21T11:52:33;8.77;;;2.15;;
56455;SDS011;42354;53.218;6.564;2022-08-21T11:55:14;8.85;;;1.92;;
56455;SDS011;42354;53.218;6.564;2022-08-21T12:00:22;7.57;;;2.10;;
56455;SDS011;42354;53.218;6.564;2022-08-21T12:03:09;7.80;;;2.10;;
56455;SDS011;42354;53.218;6.564;2022-08-21T12:05:51;9.70;;;2.13;;
56455;SDS011;42354;53.218;6.564;2022-08-21T12:16:49;6.63;;;1.70;;
56455;SDS011;42354;53.218;6.564;2022-08-21T12:22:08;5.00;;;1.75;;
56455;SDS011;42354;53.218;6.564;2022-08-21T12:29:48;5.28;;;1.40;;
56455;SDS011;42354;53.218;6.564;2022-08-21T12:34:42;7.00;;;1.70;;
56455;SDS011;42354;53.218;6.564;2022-08-21T12:37:20;7.90;;;2.10;;
56455;SDS011;42354;53.218;6.564;2022-08-21T12:39:54;10.23;;;1.80;;
56455;SDS011;42354;53.218;6.564;2022-08-21T12:42:23;4.72;;;1.48;;
56455;SDS011;42354;53.218;6.564;2022-08-21T12:45:02;11.50;;;1.40;;
56455;SDS011;42354;53.218;6.564;2022-08-21T12:47:34;7.55;;;1.67;;
56455;SDS011;42354;53.218;6.564;2022-08-21T12:50:20;10.30;;;1.80;;
56455;SDS011;42354;53.218;6.564;2022-08-21T12:52:58;7.82;;;1.92;;
56455;SDS011;42354;53.218;6.564;2022-08-21T12:55:30;8.07;;;1.63;;
56455;SDS011;42354;53.218;6.564;2022-08-21T12:57:57;8.90;;;2.05;;
56455;SDS011;42354;53.218;6.564;2022-08-21T13:00:24;7.30;;;2.03;;
56455;SDS011;42354;53.218;6.564;2022-08-21T13:02:52;7.15;;;1.80;;
56455;SDS011;42354;53.218;6.564;2022-08-21T13:05:30;4.40;;;1.80;;
56455;SDS011;42354;53.218;6.564;2022-08-21T13:07:58;5.50;;;1.48;;
56455;SDS011;42354;53.218;6.564;2022-08-21T13:10:29;5.32;;;1.63;;
56455;SDS011;42354;53.218;6.564;2022-08-21T13:12:57;7.35;;;1.45;;
56455;SDS011;42354;53.218;6.564;2022-08-21T13:15:38;3.97;;;1.20;;
56455;SDS011;42354;53.218;6.564;2022-08-21T13:18:06;6.32;;;1.40;;
56455;SDS011;42354;53.218;6.564;2022-08-21T13:20:33;3.85;;;1.38;;
56455;SDS011;42354;53.218;6.564;2022-08-21T13:23:02;8.30;;;1.80;;
56455;SDS011;42354;53.218;6.564;2022-08-21T13:25:34;4.18;;;1.20;;
56455;SDS011;42354;53.218;6.564;2022-08-21T13:28:05;5.57;;;1.40;;
56455;SDS011;42354;53.218;6.564;2022-08-21T13:30:30;3.88;;;1.65;;
56455;SDS011;42354;53.218;6.564;2022-08-21T13:32:59;9.45;;;1.70;;
56455;SDS011;42354;53.218;6.564;2022-08-21T13:38:01;5.57;;;1.48;;
56455;SDS011;42354;53.218;6.564;2022-08-21T13:40:36;11.13;;;1.52;;
56455;SDS011;42354;53.218;6.564;2022-08-21T13:43:11;4.90;;;1.50;;
56455;SDS011;42354;53.218;6.564;2022-08-21T13:45:39;6.00;;;1.35;;
56455;SDS011;42354;53.218;6.564;2022-08-21T13:48:09;7.05;;;1.40;;
56455;SDS011;42354;53.218;6.564;2022-08-21T13:50:35;5.30;;;1.48;;
56455;SDS011;42354;53.218;6.564;2022-08-21T13:53:04;7.60;;;1.50;;
56455;SDS011;42354;53.218;6.564;2022-08-21T13:55:42;7.13;;;1.50;;
56455;SDS011;42354;53.218;6.564;2022-08-21T13:58:09;6.10;;;1.83;;
56455;SDS011;42354;53.218;6.564;2022-08-21T14:00:46;8.98;;;1.70;;
56455;SDS011;42354;53.218;6.564;2022-08-21T14:03:31;6.30;;;1.73;;
56455;SDS011;42354;53.218;6.564;2022-08-21T14:05:59;3.33;;;1.30;;
56455;SDS011;42354;53.218;6.564;2022-08-21T14:11:03;6.25;;;1.55;;
56455;SDS011;42354;53.218;6.564;2022-08-21T14:13:51;8.18;;;1.45;;
56455;SDS011;42354;53.218;6.564;2022-08-21T14:18:53;8.20;;;1.90;;
56455;SDS011;42354;53.218;6.564;2022-08-21T14:21:37;7.20;;;1.63;;
56455;SDS011;42354;53.218;6.564;2022-08-21T14:24:06;14.68;;;1.92;;
56455;SDS011;42354;53.218;6.564;2022-08-21T14:26:43;7.43;;;1.30;;
56455;SDS011;42354;53.218;6.564;2022-08-21T14:29:14;5.95;;;1.50;;
56455;SDS011;42354;53.218;6.564;2022-08-21T14:31:48;3.80;;;1.23;;
56455;SDS011;42354;53.218;6.564;2022-08-21T14:34:24;7.68;;;1.70;;
56455;SDS011;42354;53.218;6.564;2022-08-21T14:36:54;6.05;;;1.88;;
56455;SDS011;42354;53.218;6.564;2022-08-21T14:39:21;5.07;;;1.48;;
56455;SDS011;42354;53.218;6.564;2022-08-21T14:41:47;6.75;;;1.48;;
56455;SDS011;42354;53.218;6.564;2022-08-21T14:44:14;8.95;;;1.70;;
56455;SDS011;42354;53.218;6.564;2022-08-21T14:46:41;6.35;;;1.63;;
56455;SDS011;42354;53.218;6.564;2022-08-21T14:49:07;6.70;;;1.73;;
56455;SDS011;42354;53.218;6.564;2022-08-21T14:51:33;6.70;;;1.30;;
56455;SDS011;42354;53.218;6.564;2022-08-21T14:53:58;7.30;;;1.65;;
56455;SDS011;42354;53.218;6.564;2022-08-21T14:56:24;7.22;;;1.73;;
56455;SDS011;42354;53.218;6.564;2022-08-21T14:58:51;3.83;;;1.30;;
56455;SDS011;42354;53.218;6.564;2022-08-21T15:01:18;6.85;;;1.50;;
56455;SDS011;42354;53.218;6.564;2022-08-21T15:03:46;5.40;;;1.63;;
56455;SDS011;42354;53.218;6.564;2022-08-21T15:06:13;6.50;;;1.67;;
56455;SDS011;42354;53.218;6.564;2022-08-21T15:08:41;5.57;;;1.83;;
56455;SDS011;42354;53.218;6.564;2022-08-21T15:11:06;4.80;;;1.42;;
56455;SDS011;42354;53.218;6.564;2022-08-21T15:13:33;8.50;;;2.17;;
56455;SDS011;42354;53.218;6.564;2022-08-21T15:16:00;6.97;;;2.10;;
56455;SDS011;42354;53.218;6.564;2022-08-21T15:18:26;7.20;;;1.77;;
56455;SDS011;42354;53.218;6.564;2022-08-21T15:20:53;7.05;;;1.38;;
56455;SDS011;42354;53.218;6.564;2022-08-21T15:23:20;5.10;;;1.58;;
56455;SDS011;42354;53.218;6.564;2022-08-21T15:25:46;6.85;;;1.58;;
56455;SDS011;42354;53.218;6.564;2022-08-21T15:28:13;6.40;;;1.30;;
56455;SDS011;42354;53.218;6.564;2022-08-21T15:30:41;7.30;;;1.48;;
56455;SDS011;42354;53.218;6.564;2022-08-21T15:33:08;6.22;;;1.52;;
56455;SDS011;42354;53.218;6.564;2022-08-21T15:35:34;6.05;;;1.45;;
56455;SDS011;42354;53.218;6.564;2022-08-21T15:38:00;4.93;;;1.25;;
56455;SDS011;42354;53.218;6.564;2022-08-21T15:40:26;7.30;;;1.55;;
56455;SDS011;42354;53.218;6.564;2022-08-21T15:42:52;9.40;;;2.13;;
56455;SDS011;42354;53.218;6.564;2022-08-21T15:45:23;8.60;;;1.80;;
56455;SDS011;42354;53.218;6.564;2022-08-21T15:47:49;7.72;;;1.77;;
56455;SDS011;42354;53.218;6.564;2022-08-21T15:50:15;6.45;;;1.70;;
56455;SDS011;42354;53.218;6.564;2022-08-21T15:52:41;6.72;;;1.60;;
56455;SDS011;42354;53.218;6.564;2022-08-21T15:55:07;13.98;;;2.20;;
56455;SDS011;42354;53.218;6.564;2022-08-21T15:57:34;9.40;;;1.65;;
56455;SDS011;42354;53.218;6.564;2022-08-21T16:00:06;10.43;;;1.88;;
56455;SDS011;42354;53.218;6.564;2022-08-21T16:02:38;7.40;;;1.50;;
56455;SDS011;42354;53.218;6.564;2022-08-21T16:05:07;8.65;;;1.70;;
56455;SDS011;42354;53.218;6.564;2022-08-21T16:07:35;6.85;;;2.10;;
56455;SDS011;42354;53.218;6.564;2022-08-21T16:10:01;7.90;;;1.77;;
56455;SDS011;42354;53.218;6.564;2022-08-21T16:12:29;6.15;;;1.90;;
56455;SDS011;42354;53.218;6.564;2022-08-21T16:14:57;9.52;;;1.60;;
56455;SDS011;42354;53.218;6.564;2022-08-21T16:17:24;5.70;;;1.63;;
56455;SDS011;42354;53.218;6.564;2022-08-21T16:19:53;9.73;;;2.08;;
56455;SDS011;42354;53.218;6.564;2022-08-21T16:22:19;12.05;;;1.80;;
56455;SDS011;42354;53.218;6.564;2022-08-21T16:24:44;6.15;;;1.60;;